Terminal Aerodrome Forecast
Issued by NWS Wilmington, OH

Current Version | Previous Version | Text Only | Print | Product List | Glossary Off
Versions: 1 2 3 4 5 6 7 8 9 10 11 12 13 14 15 16 17 18 19 20 21 22 23 24 25 26 27

000
FTUS41 KILN 031227 AAA
TAFDAY
TAF AMD
KDAY 031227Z 0312/0412 19009KT P6SM FEW050 OVC060
     FM031400 23014G20KT P6SM BKN040
     FM031800 27014G24KT P6SM BKN050
     FM032200 29012G18KT P6SM BKN050
     FM040100 32008KT P6SM SCT050
     FM041000 VRB03KT P6SM SKC=

USA.gov is the U.S. government's official web portal to all federal, state and local government web resources and services.